sensor_id;sensor_type;location;lat;lon;timestamp;P1;durP1;ratioP1;P2;durP2;ratioP2
53533;SDS011;39421;53.204;6.568;2023-07-30T00:00:22;18.77;;;5.05;;
53533;SDS011;39421;53.204;6.568;2023-07-30T00:02:48;15.45;;;5.00;;
53533;SDS011;39421;53.204;6.568;2023-07-30T00:05:14;19.40;;;5.63;;
53533;SDS011;39421;53.204;6.568;2023-07-30T00:07:40;17.40;;;5.03;;
53533;SDS011;39421;53.204;6.568;2023-07-30T00:10:06;19.02;;;5.40;;
53533;SDS011;39421;53.204;6.568;2023-07-30T00:12:33;21.30;;;5.47;;
53533;SDS011;39421;53.204;6.568;2023-07-30T00:14:59;19.27;;;5.30;;
53533;SDS011;39421;53.204;6.568;2023-07-30T00:17:25;17.55;;;5.50;;
53533;SDS011;39421;53.204;6.568;2023-07-30T00:19:51;16.92;;;5.07;;
53533;SDS011;39421;53.204;6.568;2023-07-30T00:22:17;19.03;;;5.80;;
53533;SDS011;39421;53.204;6.568;2023-07-30T00:24:43;17.10;;;5.10;;
53533;SDS011;39421;53.204;6.568;2023-07-30T00:27:09;18.50;;;5.50;;
53533;SDS011;39421;53.204;6.568;2023-07-30T00:29:35;17.35;;;5.70;;
53533;SDS011;39421;53.204;6.568;2023-07-30T00:32:01;16.70;;;5.38;;
53533;SDS011;39421;53.204;6.568;2023-07-30T00:34:28;18.30;;;5.60;;
53533;SDS011;39421;53.204;6.568;2023-07-30T00:36:54;17.45;;;5.60;;
53533;SDS011;39421;53.204;6.568;2023-07-30T00:39:20;18.17;;;5.75;;
53533;SDS011;39421;53.204;6.568;2023-07-30T00:41:46;19.48;;;5.88;;
53533;SDS011;39421;53.204;6.568;2023-07-30T00:44:12;20.10;;;6.22;;
53533;SDS011;39421;53.204;6.568;2023-07-30T00:46:38;18.25;;;5.35;;
53533;SDS011;39421;53.204;6.568;2023-07-30T00:49:04;15.77;;;5.53;;
53533;SDS011;39421;53.204;6.568;2023-07-30T00:51:31;18.60;;;5.28;;
53533;SDS011;39421;53.204;6.568;2023-07-30T00:53:57;17.80;;;5.97;;
53533;SDS011;39421;53.204;6.568;2023-07-30T00:56:24;18.40;;;5.45;;
53533;SDS011;39421;53.204;6.568;2023-07-30T00:58:50;15.38;;;5.40;;
53533;SDS011;39421;53.204;6.568;2023-07-30T01:01:16;16.87;;;5.20;;
53533;SDS011;39421;53.204;6.568;2023-07-30T01:03:42;19.05;;;6.10;;
53533;SDS011;39421;53.204;6.568;2023-07-30T01:06:08;15.18;;;5.53;;
53533;SDS011;39421;53.204;6.568;2023-07-30T01:08:35;16.67;;;5.20;;
53533;SDS011;39421;53.204;6.568;2023-07-30T01:11:01;15.27;;;5.47;;
53533;SDS011;39421;53.204;6.568;2023-07-30T01:13:27;15.75;;;5.18;;
53533;SDS011;39421;53.204;6.568;2023-07-30T01:15:54;14.33;;;5.50;;
53533;SDS011;39421;53.204;6.568;2023-07-30T01:18:20;16.42;;;5.00;;
53533;SDS011;39421;53.204;6.568;2023-07-30T01:20:46;15.88;;;4.95;;
53533;SDS011;39421;53.204;6.568;2023-07-30T01:23:12;15.50;;;5.20;;
53533;SDS011;39421;53.204;6.568;2023-07-30T01:25:38;16.65;;;5.30;;
53533;SDS011;39421;53.204;6.568;2023-07-30T01:28:05;15.77;;;5.32;;
53533;SDS011;39421;53.204;6.568;2023-07-30T01:30:38;12.70;;;4.70;;
53533;SDS011;39421;53.204;6.568;2023-07-30T01:33:06;16.50;;;5.15;;
53533;SDS011;39421;53.204;6.568;2023-07-30T01:35:33;15.60;;;5.13;;
53533;SDS011;39421;53.204;6.568;2023-07-30T01:38:01;15.13;;;5.22;;
53533;SDS011;39421;53.204;6.568;2023-07-30T01:40:28;17.73;;;5.20;;
53533;SDS011;39421;53.204;6.568;2023-07-30T01:42:55;15.50;;;4.90;;
53533;SDS011;39421;53.204;6.568;2023-07-30T01:45:21;16.20;;;5.05;;
53533;SDS011;39421;53.204;6.568;2023-07-30T01:47:47;18.42;;;4.80;;
53533;SDS011;39421;53.204;6.568;2023-07-30T01:50:13;15.82;;;4.95;;
53533;SDS011;39421;53.204;6.568;2023-07-30T01:52:39;18.02;;;5.03;;
53533;SDS011;39421;53.204;6.568;2023-07-30T01:55:05;18.37;;;5.30;;
53533;SDS011;39421;53.204;6.568;2023-07-30T01:57:32;17.53;;;4.87;;
53533;SDS011;39421;53.204;6.568;2023-07-30T01:59:58;16.33;;;4.70;;
53533;SDS011;39421;53.204;6.568;2023-07-30T02:02:24;19.35;;;5.30;;
53533;SDS011;39421;53.204;6.568;2023-07-30T02:04:50;16.38;;;4.97;;
53533;SDS011;39421;53.204;6.568;2023-07-30T02:07:16;18.65;;;4.85;;
53533;SDS011;39421;53.204;6.568;2023-07-30T02:09:43;15.87;;;4.67;;
53533;SDS011;39421;53.204;6.568;2023-07-30T02:12:09;16.30;;;5.30;;
53533;SDS011;39421;53.204;6.568;2023-07-30T02:14:36;17.08;;;5.07;;
53533;SDS011;39421;53.204;6.568;2023-07-30T02:17:02;18.00;;;4.88;;
53533;SDS011;39421;53.204;6.568;2023-07-30T02:19:28;20.30;;;5.47;;
53533;SDS011;39421;53.204;6.568;2023-07-30T02:21:54;19.83;;;5.60;;
53533;SDS011;39421;53.204;6.568;2023-07-30T02:24:20;22.95;;;5.93;;
53533;SDS011;39421;53.204;6.568;2023-07-30T02:26:46;14.93;;;4.60;;
53533;SDS011;39421;53.204;6.568;2023-07-30T02:29:13;19.53;;;5.23;;
53533;SDS011;39421;53.204;6.568;2023-07-30T02:31:39;17.13;;;5.00;;
53533;SDS011;39421;53.204;6.568;2023-07-30T02:34:06;20.33;;;5.20;;
53533;SDS011;39421;53.204;6.568;2023-07-30T02:36:33;20.13;;;5.35;;
53533;SDS011;39421;53.204;6.568;2023-07-30T02:38:59;17.00;;;5.10;;
53533;SDS011;39421;53.204;6.568;2023-07-30T02:41:25;20.03;;;4.77;;
53533;SDS011;39421;53.204;6.568;2023-07-30T02:43:51;20.10;;;5.20;;
53533;SDS011;39421;53.204;6.568;2023-07-30T02:46:17;18.88;;;5.60;;
53533;SDS011;39421;53.204;6.568;2023-07-30T02:48:43;19.50;;;4.95;;
53533;SDS011;39421;53.204;6.568;2023-07-30T02:51:09;19.15;;;5.30;;
53533;SDS011;39421;53.204;6.568;2023-07-30T02:53:36;20.33;;;5.28;;
53533;SDS011;39421;53.204;6.568;2023-07-30T02:56:02;18.35;;;4.90;;
53533;SDS011;39421;53.204;6.568;2023-07-30T02:58:28;17.60;;;4.70;;
53533;SDS011;39421;53.204;6.568;2023-07-30T03:00:54;18.50;;;4.70;;
53533;SDS011;39421;53.204;6.568;2023-07-30T03:03:20;16.50;;;4.63;;
53533;SDS011;39421;53.204;6.568;2023-07-30T03:05:46;18.98;;;5.10;;
53533;SDS011;39421;53.204;6.568;2023-07-30T03:08:12;18.92;;;4.65;;
53533;SDS011;39421;53.204;6.568;2023-07-30T03:10:38;20.88;;;5.05;;
53533;SDS011;39421;53.204;6.568;2023-07-30T03:13:04;20.50;;;5.25;;
53533;SDS011;39421;53.204;6.568;2023-07-30T03:15:30;17.83;;;4.93;;
53533;SDS011;39421;53.204;6.568;2023-07-30T03:17:57;21.47;;;5.27;;
53533;SDS011;39421;53.204;6.568;2023-07-30T03:20:23;19.23;;;5.10;;
53533;SDS011;39421;53.204;6.568;2023-07-30T03:22:49;19.05;;;4.47;;
53533;SDS011;39421;53.204;6.568;2023-07-30T03:25:15;18.40;;;4.83;;
53533;SDS011;39421;53.204;6.568;2023-07-30T03:27:41;18.73;;;4.57;;
53533;SDS011;39421;53.204;6.568;2023-07-30T03:30:07;16.90;;;4.90;;
53533;SDS011;39421;53.204;6.568;2023-07-30T03:32:34;18.90;;;4.60;;
53533;SDS011;39421;53.204;6.568;2023-07-30T03:35:00;20.63;;;4.93;;
53533;SDS011;39421;53.204;6.568;2023-07-30T03:37:26;19.15;;;5.10;;
53533;SDS011;39421;53.204;6.568;2023-07-30T03:39:52;17.30;;;4.32;;
53533;SDS011;39421;53.204;6.568;2023-07-30T03:42:18;21.20;;;4.40;;
53533;SDS011;39421;53.204;6.568;2023-07-30T03:44:45;19.02;;;4.70;;
53533;SDS011;39421;53.204;6.568;2023-07-30T03:47:11;18.67;;;4.97;;
53533;SDS011;39421;53.204;6.568;2023-07-30T03:49:37;19.52;;;4.30;;
53533;SDS011;39421;53.204;6.568;2023-07-30T03:52:03;19.20;;;4.50;;
53533;SDS011;39421;53.204;6.568;2023-07-30T03:54:29;19.48;;;4.90;;
53533;SDS011;39421;53.204;6.568;2023-07-30T03:56:55;20.98;;;4.63;;
53533;SDS011;39421;53.204;6.568;2023-07-30T03:59:21;19.83;;;4.57;;
53533;SDS011;39421;53.204;6.568;2023-07-30T04:01:47;18.83;;;4.97;;
53533;SDS011;39421;53.204;6.568;2023-07-30T04:04:14;18.83;;;4.50;;
53533;SDS011;39421;53.204;6.568;2023-07-30T04:06:40;19.17;;;4.40;;
53533;SDS011;39421;53.204;6.568;2023-07-30T04:09:06;16.35;;;4.47;;
53533;SDS011;39421;53.204;6.568;2023-07-30T04:11:33;20.30;;;4.78;;
53533;SDS011;39421;53.204;6.568;2023-07-30T04:13:59;21.77;;;4.60;;
53533;SDS011;39421;53.204;6.568;2023-07-30T04:16:25;19.25;;;4.70;;
53533;SDS011;39421;53.204;6.568;2023-07-30T04:18:51;18.10;;;4.20;;
53533;SDS011;39421;53.204;6.568;2023-07-30T04:21:17;17.45;;;4.53;;
53533;SDS011;39421;53.204;6.568;2023-07-30T04:23:44;20.55;;;4.60;;
53533;SDS011;39421;53.204;6.568;2023-07-30T04:26:10;16.92;;;4.35;;
53533;SDS011;39421;53.204;6.568;2023-07-30T04:28:36;20.35;;;5.03;;
53533;SDS011;39421;53.204;6.568;2023-07-30T04:31:02;18.52;;;4.00;;
53533;SDS011;39421;53.204;6.568;2023-07-30T04:33:28;20.20;;;4.60;;
53533;SDS011;39421;53.204;6.568;2023-07-30T04:35:54;20.65;;;4.85;;
53533;SDS011;39421;53.204;6.568;2023-07-30T04:38:20;19.33;;;4.40;;
53533;SDS011;39421;53.204;6.568;2023-07-30T04:40:46;18.13;;;4.70;;
53533;SDS011;39421;53.204;6.568;2023-07-30T04:43:13;16.25;;;4.30;;
53533;SDS011;39421;53.204;6.568;2023-07-30T04:45:39;18.67;;;4.20;;
53533;SDS011;39421;53.204;6.568;2023-07-30T04:48:05;17.67;;;4.63;;
53533;SDS011;39421;53.204;6.568;2023-07-30T04:50:31;18.08;;;4.60;;
53533;SDS011;39421;53.204;6.568;2023-07-30T04:52:57;17.73;;;4.43;;
53533;SDS011;39421;53.204;6.568;2023-07-30T04:55:23;18.08;;;4.45;;
53533;SDS011;39421;53.204;6.568;2023-07-30T04:57:50;19.10;;;4.05;;
53533;SDS011;39421;53.204;6.568;2023-07-30T05:00:16;20.73;;;4.47;;
53533;SDS011;39421;53.204;6.568;2023-07-30T05:02:42;17.33;;;4.50;;
53533;SDS011;39421;53.204;6.568;2023-07-30T05:05:08;18.15;;;4.50;;
53533;SDS011;39421;53.204;6.568;2023-07-30T05:07:34;15.27;;;4.23;;
53533;SDS011;39421;53.204;6.568;2023-07-30T05:10:00;18.58;;;4.20;;
53533;SDS011;39421;53.204;6.568;2023-07-30T05:12:26;18.10;;;4.40;;
53533;SDS011;39421;53.204;6.568;2023-07-30T05:14:53;17.70;;;4.20;;
53533;SDS011;39421;53.204;6.568;2023-07-30T05:17:19;14.77;;;3.92;;
53533;SDS011;39421;53.204;6.568;2023-07-30T05:19:45;16.63;;;3.95;;
53533;SDS011;39421;53.204;6.568;2023-07-30T05:22:11;15.57;;;4.28;;
53533;SDS011;39421;53.204;6.568;2023-07-30T05:24:37;14.30;;;3.92;;
53533;SDS011;39421;53.204;6.568;2023-07-30T05:27:04;15.57;;;3.80;;
53533;SDS011;39421;53.204;6.568;2023-07-30T05:29:30;16.17;;;4.28;;
53533;SDS011;39421;53.204;6.568;2023-07-30T05:31:56;16.47;;;4.00;;
53533;SDS011;39421;53.204;6.568;2023-07-30T05:34:22;13.77;;;3.60;;
53533;SDS011;39421;53.204;6.568;2023-07-30T05:36:48;15.63;;;3.70;;
53533;SDS011;39421;53.204;6.568;2023-07-30T05:39:14;13.07;;;3.40;;
53533;SDS011;39421;53.204;6.568;2023-07-30T05:41:40;13.10;;;3.58;;
53533;SDS011;39421;53.204;6.568;2023-07-30T05:44:06;13.07;;;3.30;;
53533;SDS011;39421;53.204;6.568;2023-07-30T05:46:33;14.95;;;3.72;;
53533;SDS011;39421;53.204;6.568;2023-07-30T05:48:59;15.07;;;3.83;;
53533;SDS011;39421;53.204;6.568;2023-07-30T05:51:25;14.00;;;3.88;;
53533;SDS011;39421;53.204;6.568;2023-07-30T05:53:52;16.97;;;3.77;;
53533;SDS011;39421;53.204;6.568;2023-07-30T05:56:18;17.02;;;4.32;;
53533;SDS011;39421;53.204;6.568;2023-07-30T05:58:45;15.38;;;3.60;;
53533;SDS011;39421;53.204;6.568;2023-07-30T06:01:11;13.70;;;3.40;;
53533;SDS011;39421;53.204;6.568;2023-07-30T06:03:37;15.73;;;3.78;;
53533;SDS011;39421;53.204;6.568;2023-07-30T06:06:03;11.63;;;3.25;;
53533;SDS011;39421;53.204;6.568;2023-07-30T06:08:29;14.82;;;3.63;;
53533;SDS011;39421;53.204;6.568;2023-07-30T06:10:59;14.02;;;3.30;;
53533;SDS011;39421;53.204;6.568;2023-07-30T06:13:26;16.52;;;3.55;;
53533;SDS011;39421;53.204;6.568;2023-07-30T06:15:52;13.83;;;3.30;;
53533;SDS011;39421;53.204;6.568;2023-07-30T06:18:18;14.48;;;3.63;;
53533;SDS011;39421;53.204;6.568;2023-07-30T06:20:44;14.00;;;3.45;;
53533;SDS011;39421;53.204;6.568;2023-07-30T06:23:10;13.07;;;3.28;;
53533;SDS011;39421;53.204;6.568;2023-07-30T06:25:37;14.45;;;2.88;;
53533;SDS011;39421;53.204;6.568;2023-07-30T06:28:04;13.23;;;2.77;;
53533;SDS011;39421;53.204;6.568;2023-07-30T06:30:30;13.30;;;3.00;;
53533;SDS011;39421;53.204;6.568;2023-07-30T06:32:57;12.63;;;3.05;;
53533;SDS011;39421;53.204;6.568;2023-07-30T06:35:24;12.85;;;3.25;;
53533;SDS011;39421;53.204;6.568;2023-07-30T06:37:50;11.03;;;2.60;;
53533;SDS011;39421;53.204;6.568;2023-07-30T06:40:16;11.27;;;2.70;;
53533;SDS011;39421;53.204;6.568;2023-07-30T06:42:45;12.90;;;3.08;;
53533;SDS011;39421;53.204;6.568;2023-07-30T06:45:11;12.03;;;3.40;;
53533;SDS011;39421;53.204;6.568;2023-07-30T06:47:37;14.07;;;3.40;;
53533;SDS011;39421;53.204;6.568;2023-07-30T06:50:04;13.35;;;3.10;;
53533;SDS011;39421;53.204;6.568;2023-07-30T06:52:33;13.25;;;3.17;;
53533;SDS011;39421;53.204;6.568;2023-07-30T06:55:00;15.68;;;3.50;;
53533;SDS011;39421;53.204;6.568;2023-07-30T06:57:27;15.65;;;3.55;;
53533;SDS011;39421;53.204;6.568;2023-07-30T06:59:53;13.20;;;3.10;;
53533;SDS011;39421;53.204;6.568;2023-07-30T07:02:20;13.98;;;3.40;;
53533;SDS011;39421;53.204;6.568;2023-07-30T07:04:46;13.05;;;3.15;;
53533;SDS011;39421;53.204;6.568;2023-07-30T07:07:12;11.38;;;2.88;;
53533;SDS011;39421;53.204;6.568;2023-07-30T07:09:38;12.27;;;2.97;;
53533;SDS011;39421;53.204;6.568;2023-07-30T07:12:04;12.80;;;3.07;;
53533;SDS011;39421;53.204;6.568;2023-07-30T07:14:31;12.67;;;3.00;;
53533;SDS011;39421;53.204;6.568;2023-07-30T07:16:57;12.65;;;3.08;;
53533;SDS011;39421;53.204;6.568;2023-07-30T07:19:23;12.48;;;2.95;;
53533;SDS011;39421;53.204;6.568;2023-07-30T07:21:49;12.07;;;2.90;;
53533;SDS011;39421;53.204;6.568;2023-07-30T07:24:15;12.02;;;2.65;;
53533;SDS011;39421;53.204;6.568;2023-07-30T07:26:41;9.55;;;2.40;;
53533;SDS011;39421;53.204;6.568;2023-07-30T07:29:09;13.75;;;3.00;;
53533;SDS011;39421;53.204;6.568;2023-07-30T07:31:35;9.85;;;2.45;;
53533;SDS011;39421;53.204;6.568;2023-07-30T07:34:01;9.18;;;2.10;;
53533;SDS011;39421;53.204;6.568;2023-07-30T07:36:28;12.63;;;2.50;;
53533;SDS011;39421;53.204;6.568;2023-07-30T07:38:54;9.00;;;2.07;;
53533;SDS011;39421;53.204;6.568;2023-07-30T07:41:20;12.05;;;2.42;;
53533;SDS011;39421;53.204;6.568;2023-07-30T07:43:46;10.18;;;2.13;;
53533;SDS011;39421;53.204;6.568;2023-07-30T07:46:13;12.50;;;2.20;;
53533;SDS011;39421;53.204;6.568;2023-07-30T07:48:40;15.23;;;2.70;;
53533;SDS011;39421;53.204;6.568;2023-07-30T07:51:06;10.43;;;1.98;;
53533;SDS011;39421;53.204;6.568;2023-07-30T07:53:33;8.80;;;2.00;;
53533;SDS011;39421;53.204;6.568;2023-07-30T07:55:59;12.73;;;2.05;;
53533;SDS011;39421;53.204;6.568;2023-07-30T07:58:25;8.98;;;2.00;;
53533;SDS011;39421;53.204;6.568;2023-07-30T08:00:53;8.18;;;1.80;;
53533;SDS011;39421;53.204;6.568;2023-07-30T08:03:20;10.20;;;1.90;;
53533;SDS011;39421;53.204;6.568;2023-07-30T08:05:47;9.27;;;1.88;;
53533;SDS011;39421;53.204;6.568;2023-07-30T08:08:13;9.15;;;2.10;;
53533;SDS011;39421;53.204;6.568;2023-07-30T08:10:39;8.63;;;1.90;;
53533;SDS011;39421;53.204;6.568;2023-07-30T08:13:09;9.10;;;2.00;;
53533;SDS011;39421;53.204;6.568;2023-07-30T08:15:35;8.50;;;1.60;;
53533;SDS011;39421;53.204;6.568;2023-07-30T08:18:01;8.75;;;2.05;;
53533;SDS011;39421;53.204;6.568;2023-07-30T08:20:27;9.02;;;1.80;;
53533;SDS011;39421;53.204;6.568;2023-07-30T08:22:53;8.50;;;1.70;;
53533;SDS011;39421;53.204;6.568;2023-07-30T08:25:19;10.85;;;2.05;;
53533;SDS011;39421;53.204;6.568;2023-07-30T08:27:46;12.55;;;1.90;;
53533;SDS011;39421;53.204;6.568;2023-07-30T08:30:12;9.05;;;1.95;;
53533;SDS011;39421;53.204;6.568;2023-07-30T08:32:38;9.75;;;2.00;;
53533;SDS011;39421;53.204;6.568;2023-07-30T08:35:06;10.53;;;2.03;;
53533;SDS011;39421;53.204;6.568;2023-07-30T08:37:33;11.90;;;2.00;;
53533;SDS011;39421;53.204;6.568;2023-07-30T08:39:59;9.77;;;1.70;;
53533;SDS011;39421;53.204;6.568;2023-07-30T08:42:25;10.88;;;2.05;;
53533;SDS011;39421;53.204;6.568;2023-07-30T08:44:51;8.63;;;2.00;;
53533;SDS011;39421;53.204;6.568;2023-07-30T08:47:17;7.55;;;2.00;;
53533;SDS011;39421;53.204;6.568;2023-07-30T08:49:43;7.75;;;1.73;;
53533;SDS011;39421;53.204;6.568;2023-07-30T08:52:10;8.53;;;1.80;;
53533;SDS011;39421;53.204;6.568;2023-07-30T08:54:37;9.03;;;2.00;;
53533;SDS011;39421;53.204;6.568;2023-07-30T08:57:03;9.48;;;1.90;;
53533;SDS011;39421;53.204;6.568;2023-07-30T08:59:33;9.85;;;2.00;;
53533;SDS011;39421;53.204;6.568;2023-07-30T09:02:02;10.25;;;1.85;;
53533;SDS011;39421;53.204;6.568;2023-07-30T09:04:28;7.70;;;1.90;;
53533;SDS011;39421;53.204;6.568;2023-07-30T09:06:55;8.13;;;1.85;;
53533;SDS011;39421;53.204;6.568;2023-07-30T09:09:21;8.98;;;1.80;;
53533;SDS011;39421;53.204;6.568;2023-07-30T09:11:51;9.88;;;1.80;;
53533;SDS011;39421;53.204;6.568;2023-07-30T09:14:19;9.02;;;1.70;;
53533;SDS011;39421;53.204;6.568;2023-07-30T09:16:53;10.73;;;1.80;;
53533;SDS011;39421;53.204;6.568;2023-07-30T09:19:22;8.63;;;1.90;;
53533;SDS011;39421;53.204;6.568;2023-07-30T09:21:48;8.13;;;2.03;;
53533;SDS011;39421;53.204;6.568;2023-07-30T09:24:20;10.68;;;2.00;;
53533;SDS011;39421;53.204;6.568;2023-07-30T09:26:47;9.10;;;1.92;;
53533;SDS011;39421;53.204;6.568;2023-07-30T09:29:13;10.43;;;1.90;;
53533;SDS011;39421;53.204;6.568;2023-07-30T09:31:49;6.93;;;1.43;;
53533;SDS011;39421;53.204;6.568;2023-07-30T09:34:17;8.43;;;1.60;;
53533;SDS011;39421;53.204;6.568;2023-07-30T09:36:45;7.57;;;1.52;;
53533;SDS011;39421;53.204;6.568;2023-07-30T09:39:15;6.35;;;1.60;;
53533;SDS011;39421;53.204;6.568;2023-07-30T09:41:42;10.88;;;1.95;;
53533;SDS011;39421;53.204;6.568;2023-07-30T09:44:08;7.72;;;1.50;;
53533;SDS011;39421;53.204;6.568;2023-07-30T09:46:41;7.50;;;1.80;;
53533;SDS011;39421;53.204;6.568;2023-07-30T09:49:08;8.70;;;1.73;;
53533;SDS011;39421;53.204;6.568;2023-07-30T09:51:34;8.02;;;1.95;;
53533;SDS011;39421;53.204;6.568;2023-07-30T09:54:02;6.87;;;1.60;;
53533;SDS011;39421;53.204;6.568;2023-07-30T09:56:28;8.07;;;1.73;;
53533;SDS011;39421;53.204;6.568;2023-07-30T09:58:55;7.70;;;1.77;;
53533;SDS011;39421;53.204;6.568;2023-07-30T10:01:21;6.75;;;1.50;;
53533;SDS011;39421;53.204;6.568;2023-07-30T10:03:49;5.75;;;1.45;;
53533;SDS011;39421;53.204;6.568;2023-07-30T10:06:15;6.55;;;1.63;;
53533;SDS011;39421;53.204;6.568;2023-07-30T10:08:42;7.32;;;1.90;;
53533;SDS011;39421;53.204;6.568;2023-07-30T10:11:09;6.95;;;1.52;;
53533;SDS011;39421;53.204;6.568;2023-07-30T10:13:35;6.63;;;1.60;;
53533;SDS011;39421;53.204;6.568;2023-07-30T10:16:02;7.67;;;1.63;;
53533;SDS011;39421;53.204;6.568;2023-07-30T10:18:38;6.20;;;1.58;;
53533;SDS011;39421;53.204;6.568;2023-07-30T10:21:07;5.47;;;1.55;;
53533;SDS011;39421;53.204;6.568;2023-07-30T10:23:34;6.07;;;1.30;;
53533;SDS011;39421;53.204;6.568;2023-07-30T10:26:08;5.65;;;1.20;;
53533;SDS011;39421;53.204;6.568;2023-07-30T10:28:35;5.75;;;1.50;;
53533;SDS011;39421;53.204;6.568;2023-07-30T10:31:07;6.57;;;1.45;;
53533;SDS011;39421;53.204;6.568;2023-07-30T10:33:44;7.83;;;1.60;;
53533;SDS011;39421;53.204;6.568;2023-07-30T10:36:11;6.40;;;1.50;;
53533;SDS011;39421;53.204;6.568;2023-07-30T10:38:37;9.73;;;2.00;;
53533;SDS011;39421;53.204;6.568;2023-07-30T10:41:07;11.25;;;2.20;;
53533;SDS011;39421;53.204;6.568;2023-07-30T10:43:38;9.20;;;1.95;;
53533;SDS011;39421;53.204;6.568;2023-07-30T10:46:04;8.07;;;2.00;;
53533;SDS011;39421;53.204;6.568;2023-07-30T10:48:44;8.18;;;2.15;;
53533;SDS011;39421;53.204;6.568;2023-07-30T10:51:11;8.02;;;2.10;;
53533;SDS011;39421;53.204;6.568;2023-07-30T10:53:37;8.20;;;2.30;;
53533;SDS011;39421;53.204;6.568;2023-07-30T10:56:05;9.68;;;2.20;;
53533;SDS011;39421;53.204;6.568;2023-07-30T10:58:33;8.27;;;2.20;;
53533;SDS011;39421;53.204;6.568;2023-07-30T11:01:01;7.80;;;1.80;;
53533;SDS011;39421;53.204;6.568;2023-07-30T11:03:28;8.57;;;2.08;;
53533;SDS011;39421;53.204;6.568;2023-07-30T11:05:54;8.57;;;2.17;;
53533;SDS011;39421;53.204;6.568;2023-07-30T11:08:39;9.93;;;2.10;;
53533;SDS011;39421;53.204;6.568;2023-07-30T11:11:07;12.15;;;2.05;;
53533;SDS011;39421;53.204;6.568;2023-07-30T11:13:37;10.27;;;2.10;;
53533;SDS011;39421;53.204;6.568;2023-07-30T11:16:06;9.23;;;1.92;;
53533;SDS011;39421;53.204;6.568;2023-07-30T11:18:33;9.53;;;2.40;;
53533;SDS011;39421;53.204;6.568;2023-07-30T11:21:03;9.73;;;1.98;;
53533;SDS011;39421;53.204;6.568;2023-07-30T11:23:29;8.25;;;1.88;;
53533;SDS011;39421;53.204;6.568;2023-07-30T11:25:55;9.30;;;1.92;;
53533;SDS011;39421;53.204;6.568;2023-07-30T11:28:28;8.50;;;1.95;;
53533;SDS011;39421;53.204;6.568;2023-07-30T11:31:02;8.35;;;2.10;;
53533;SDS011;39421;53.204;6.568;2023-07-30T11:33:28;8.43;;;2.00;;
53533;SDS011;39421;53.204;6.568;2023-07-30T11:35:55;9.63;;;1.88;;
53533;SDS011;39421;53.204;6.568;2023-07-30T11:38:24;9.40;;;2.20;;
53533;SDS011;39421;53.204;6.568;2023-07-30T11:40:52;8.20;;;1.90;;
53533;SDS011;39421;53.204;6.568;2023-07-30T11:43:18;9.18;;;2.15;;
53533;SDS011;39421;53.204;6.568;2023-07-30T11:45:44;10.93;;;1.60;;
53533;SDS011;39421;53.204;6.568;2023-07-30T11:48:11;7.95;;;1.65;;
53533;SDS011;39421;53.204;6.568;2023-07-30T11:53:09;8.68;;;2.08;;
53533;SDS011;39421;53.204;6.568;2023-07-30T11:55:38;8.80;;;1.98;;
53533;SDS011;39421;53.204;6.568;2023-07-30T11:58:07;6.90;;;1.60;;
53533;SDS011;39421;53.204;6.568;2023-07-30T12:00:37;7.37;;;1.80;;
53533;SDS011;39421;53.204;6.568;2023-07-30T12:03:04;9.63;;;1.70;;
53533;SDS011;39421;53.204;6.568;2023-07-30T12:05:35;9.67;;;1.90;;
53533;SDS011;39421;53.204;6.568;2023-07-30T12:08:01;9.15;;;1.70;;
53533;SDS011;39421;53.204;6.568;2023-07-30T12:10:50;7.75;;;1.70;;
53533;SDS011;39421;53.204;6.568;2023-07-30T12:13:17;8.50;;;1.70;;
53533;SDS011;39421;53.204;6.568;2023-07-30T12:15:44;9.23;;;2.00;;
53533;SDS011;39421;53.204;6.568;2023-07-30T12:18:10;7.10;;;1.80;;
53533;SDS011;39421;53.204;6.568;2023-07-30T12:20:36;7.30;;;1.65;;
53533;SDS011;39421;53.204;6.568;2023-07-30T12:23:02;7.47;;;1.75;;
53533;SDS011;39421;53.204;6.568;2023-07-30T12:25:28;9.20;;;1.83;;
53533;SDS011;39421;53.204;6.568;2023-07-30T12:27:54;7.70;;;1.70;;
53533;SDS011;39421;53.204;6.568;2023-07-30T12:30:20;6.30;;;1.60;;
53533;SDS011;39421;53.204;6.568;2023-07-30T12:32:47;5.43;;;1.50;;
53533;SDS011;39421;53.204;6.568;2023-07-30T12:35:13;6.57;;;1.60;;
53533;SDS011;39421;53.204;6.568;2023-07-30T12:37:39;6.28;;;1.50;;
53533;SDS011;39421;53.204;6.568;2023-07-30T12:40:05;7.80;;;1.58;;
53533;SDS011;39421;53.204;6.568;2023-07-30T12:42:32;8.02;;;1.60;;
53533;SDS011;39421;53.204;6.568;2023-07-30T12:44:58;7.45;;;1.67;;
53533;SDS011;39421;53.204;6.568;2023-07-30T12:47:24;8.00;;;1.50;;
53533;SDS011;39421;53.204;6.568;2023-07-30T12:49:50;12.98;;;1.83;;
53533;SDS011;39421;53.204;6.568;2023-07-30T12:52:16;9.30;;;1.70;;
53533;SDS011;39421;53.204;6.568;2023-07-30T12:54:42;8.75;;;1.75;;
53533;SDS011;39421;53.204;6.568;2023-07-30T12:57:08;8.60;;;1.73;;
53533;SDS011;39421;53.204;6.568;2023-07-30T12:59:34;8.52;;;1.67;;
53533;SDS011;39421;53.204;6.568;2023-07-30T13:02:01;6.47;;;1.52;;
53533;SDS011;39421;53.204;6.568;2023-07-30T13:04:27;8.82;;;1.70;;
53533;SDS011;39421;53.204;6.568;2023-07-30T13:06:53;7.10;;;1.50;;
53533;SDS011;39421;53.204;6.568;2023-07-30T13:09:20;7.00;;;1.40;;
53533;SDS011;39421;53.204;6.568;2023-07-30T13:11:47;9.00;;;1.50;;
53533;SDS011;39421;53.204;6.568;2023-07-30T13:14:13;7.57;;;1.40;;
53533;SDS011;39421;53.204;6.568;2023-07-30T13:16:39;9.77;;;1.50;;
53533;SDS011;39421;53.204;6.568;2023-07-30T13:19:05;6.32;;;1.20;;
53533;SDS011;39421;53.204;6.568;2023-07-30T13:21:31;7.10;;;1.40;;
53533;SDS011;39421;53.204;6.568;2023-07-30T13:23:57;7.68;;;1.33;;
53533;SDS011;39421;53.204;6.568;2023-07-30T13:26:23;9.07;;;1.65;;
53533;SDS011;39421;53.204;6.568;2023-07-30T13:28:49;6.80;;;1.25;;
53533;SDS011;39421;53.204;6.568;2023-07-30T13:31:16;7.43;;;1.40;;
53533;SDS011;39421;53.204;6.568;2023-07-30T13:33:43;5.75;;;1.30;;
53533;SDS011;39421;53.204;6.568;2023-07-30T13:36:12;7.38;;;1.50;;
53533;SDS011;39421;53.204;6.568;2023-07-30T13:38:38;8.32;;;1.50;;
53533;SDS011;39421;53.204;6.568;2023-07-30T13:41:04;7.07;;;1.40;;
53533;SDS011;39421;53.204;6.568;2023-07-30T13:43:31;7.40;;;1.40;;
53533;SDS011;39421;53.204;6.568;2023-07-30T13:45:57;6.80;;;1.40;;
53533;SDS011;39421;53.204;6.568;2023-07-30T13:48:24;6.90;;;1.55;;
53533;SDS011;39421;53.204;6.568;2023-07-30T13:50:50;10.85;;;1.48;;
53533;SDS011;39421;53.204;6.568;2023-07-30T13:53:16;7.00;;;1.27;;
53533;SDS011;39421;53.204;6.568;2023-07-30T13:55:43;8.02;;;1.45;;
53533;SDS011;39421;53.204;6.568;2023-07-30T13:58:09;6.88;;;1.45;;
53533;SDS011;39421;53.204;6.568;2023-07-30T14:00:35;11.55;;;1.83;;
53533;SDS011;39421;53.204;6.568;2023-07-30T14:03:02;10.68;;;1.40;;
53533;SDS011;39421;53.204;6.568;2023-07-30T14:05:28;10.32;;;1.67;;
53533;SDS011;39421;53.204;6.568;2023-07-30T14:07:54;7.97;;;1.40;;
53533;SDS011;39421;53.204;6.568;2023-07-30T14:10:25;10.85;;;1.88;;
53533;SDS011;39421;53.204;6.568;2023-07-30T14:12:52;6.63;;;1.60;;
53533;SDS011;39421;53.204;6.568;2023-07-30T14:15:18;9.13;;;1.50;;
53533;SDS011;39421;53.204;6.568;2023-07-30T14:17:44;8.97;;;1.70;;
53533;SDS011;39421;53.204;6.568;2023-07-30T14:20:12;7.43;;;1.38;;
53533;SDS011;39421;53.204;6.568;2023-07-30T14:22:38;12.17;;;1.80;;
53533;SDS011;39421;53.204;6.568;2023-07-30T14:25:05;7.35;;;1.33;;
53533;SDS011;39421;53.204;6.568;2023-07-30T14:27:31;8.07;;;1.40;;
53533;SDS011;39421;53.204;6.568;2023-07-30T14:29:57;5.73;;;1.40;;
53533;SDS011;39421;53.204;6.568;2023-07-30T14:32:23;7.68;;;1.38;;
53533;SDS011;39421;53.204;6.568;2023-07-30T14:34:49;12.10;;;1.80;;
53533;SDS011;39421;53.204;6.568;2023-07-30T14:37:15;6.90;;;1.70;;
53533;SDS011;39421;53.204;6.568;2023-07-30T14:39:41;9.20;;;1.63;;